createdAt,value
2017-06-10T00:00:53.760Z,18.79
2017-06-10T00:01:53.664Z,18.72
2017-06-10T00:02:53.711Z,18.8
2017-06-10T00:03:53.752Z,18.7
2017-06-10T00:04:53.812Z,18.76
2017-06-10T00:05:53.824Z,18.77
2017-06-10T00:06:53.869Z,18.82
2017-06-10T00:07:54.232Z,18.8
2017-06-10T00:08:53.945Z,18.86
2017-06-10T00:09:53.984Z,18.86
2017-06-10T00:10:54.031Z,18.86
2017-06-10T00:11:54.062Z,18.84
2017-06-10T00:12:54.103Z,18.83
2017-06-10T00:13:54.146Z,18.8
2017-06-10T00:14:54.803Z,18.8
2017-06-10T00:15:54.221Z,18.83
2017-06-10T00:16:54.269Z,18.72
2017-06-10T00:17:54.314Z,18.68
2017-06-10T00:18:54.342Z,18.68
2017-06-10T00:19:54.394Z,18.76
2017-06-10T00:20:54.420Z,18.72
2017-06-10T00:21:54.474Z,18.76
2017-06-10T00:22:54.814Z,18.74
2017-06-10T00:23:54.741Z,18.76
2017-06-10T00:24:54.582Z,18.77
2017-06-10T00:25:54.620Z,18.68
2017-06-10T00:26:54.666Z,18.8
2017-06-10T00:27:54.703Z,18.8
2017-06-10T00:28:55.051Z,18.77
2017-06-10T00:29:54.777Z,18.68
2017-06-10T00:30:54.817Z,18.7
2017-06-10T00:31:54.861Z,18.7
2017-06-10T00:32:55.205Z,18.64
2017-06-10T00:33:55.252Z,18.79
2017-06-10T00:34:54.983Z,18.76
2017-06-10T00:35:55.023Z,18.73
2017-06-10T00:36:55.372Z,18.76
2017-06-10T00:37:55.099Z,18.73
2017-06-10T00:38:55.141Z,18.72
2017-06-10T00:39:55.182Z,18.77
2017-06-10T00:40:55.224Z,18.77
2017-06-10T00:41:55.262Z,18.68
2017-06-10T00:42:55.297Z,18.72
2017-06-10T00:43:55.338Z,18.64
2017-06-10T00:44:55.682Z,18.68
2017-06-10T00:45:55.425Z,18.64
2017-06-10T00:46:55.452Z,18.67
2017-06-10T00:47:55.505Z,18.59
2017-06-10T00:48:55.540Z,18.61
2017-06-10T00:49:55.891Z,18.67
2017-06-10T00:50:55.616Z,18.61
2017-06-10T00:51:55.663Z,18.67
2017-06-10T00:52:55.692Z,18.67
2017-06-10T00:53:56.045Z,18.57
2017-06-10T00:54:55.769Z,18.62
2017-06-10T00:55:55.814Z,18.47
2017-06-10T00:56:55.854Z,18.55
2017-06-10T00:57:55.889Z,18.44
2017-06-10T00:58:55.928Z,18.52
2017-06-10T00:59:56.281Z,18.5
2017-06-10T01:00:56.015Z,18.49
2017-06-10T01:01:56.052Z,18.5
2017-06-10T01:02:56.095Z,18.39
2017-06-10T01:03:56.129Z,18.44
2017-06-10T01:04:56.472Z,18.44
2017-06-10T01:05:56.518Z,18.5
2017-06-10T01:06:56.250Z,18.36
2017-06-10T01:07:56.290Z,18.36
2017-06-10T01:08:56.324Z,18.29
2017-06-10T01:09:56.679Z,18.33
2017-06-10T01:10:56.404Z,18.36
2017-06-10T01:11:56.443Z,18.31
2017-06-10T01:12:56.804Z,18.29
2017-06-10T01:13:56.836Z,18.29
2017-06-10T01:14:56.564Z,18.25
2017-06-10T01:15:56.606Z,18.29
2017-06-10T01:16:56.641Z,18.28
2017-06-10T01:17:56.687Z,18.25
2017-06-10T01:18:56.725Z,18.22
2017-06-10T01:19:56.763Z,18.18
2017-06-10T01:20:56.804Z,18.15
2017-06-10T01:21:57.148Z,18.24
2017-06-10T01:22:56.886Z,18.24
2017-06-10T01:23:56.920Z,18.17
2017-06-10T01:24:57.267Z,18.15
2017-06-10T01:25:56.997Z,18.13
2017-06-10T01:26:57.034Z,18.12
2017-06-10T01:27:57.074Z,18.15
2017-06-10T01:28:57.126Z,18.15
2017-06-10T01:29:57.155Z,18.22
2017-06-10T01:30:57.201Z,18.1
2017-06-10T01:31:57.230Z,18.1
2017-06-10T01:32:57.580Z,18.06
2017-06-10T01:33:57.317Z,18.12
2017-06-10T01:34:57.666Z,18.07
2017-06-10T01:35:57.400Z,18.07
2017-06-10T01:36:57.441Z,18
2017-06-10T01:37:57.469Z,18
2017-06-10T01:38:57.528Z,18.09
2017-06-10T01:39:57.558Z,18.06
2017-06-10T01:40:57.596Z,18.03
2017-06-10T01:41:57.629Z,17.92
2017-06-10T01:42:57.983Z,17.92
2017-06-10T01:43:57.784Z,17.94
2017-06-10T01:44:58.056Z,17.89
2017-06-10T01:45:57.789Z,17.92
2017-06-10T01:46:57.827Z,17.95
2017-06-10T01:47:57.861Z,17.89
2017-06-10T01:48:57.906Z,17.87
2017-06-10T01:49:57.943Z,17.89
2017-06-10T01:50:57.998Z,17.88
2017-06-10T01:51:58.335Z,17.89
2017-06-10T01:52:58.061Z,17.87
2017-06-10T01:53:58.096Z,17.87
2017-06-10T01:54:58.293Z,17.88
2017-06-10T01:55:58.183Z,17.78
2017-06-10T01:56:58.220Z,17.74
2017-06-10T01:57:58.255Z,17.81
2017-06-10T01:58:58.299Z,17.73
2017-06-10T01:59:58.332Z,17.76
2017-06-10T02:00:58.379Z,17.67
2017-06-10T02:01:58.726Z,17.71
2017-06-10T02:02:58.758Z,17.67
2017-06-10T02:03:58.796Z,17.69
2017-06-10T02:04:58.535Z,17.67
2017-06-10T02:05:58.570Z,17.7
2017-06-10T02:06:58.914Z,17.53
2017-06-10T02:07:58.979Z,17.62
2017-06-10T02:08:58.690Z,17.47
2017-06-10T02:09:58.733Z,17.53
2017-06-10T02:10:58.767Z,17.48
2017-06-10T02:11:58.802Z,17.47
2017-06-10T02:12:58.846Z,17.47
2017-06-10T02:13:58.891Z,17.44
2017-06-10T02:14:58.921Z,17.4
2017-06-10T02:15:59.269Z,17.44
2017-06-10T02:16:59.003Z,17.33
2017-06-10T02:17:59.042Z,17.41
2017-06-10T02:18:59.075Z,17.38
2017-06-10T02:19:59.115Z,17.33
2017-06-10T02:20:59.161Z,17.36
2017-06-10T02:21:59.196Z,17.36
2017-06-10T02:22:59.544Z,17.28
2017-06-10T02:23:59.267Z,17.25
2017-06-10T02:24:59.622Z,17.22
2017-06-10T02:25:59.350Z,17.18
2017-06-10T02:26:59.390Z,17.25
2017-06-10T02:27:59.432Z,17.2
2017-06-10T02:28:59.476Z,17.14
2017-06-10T02:29:59.509Z,17.18
2017-06-10T02:30:59.858Z,17.15
2017-06-10T02:31:59.588Z,17.13
2017-06-10T02:32:59.620Z,17.11
2017-06-10T02:33:59.665Z,17.07
2017-06-10T02:34:59.701Z,17.1
2017-06-10T02:35:59.738Z,17.04
2017-06-10T02:36:59.781Z,17.03
2017-06-10T02:37:59.814Z,17.11
2017-06-10T02:38:59.861Z,16.98
2017-06-10T02:39:59.894Z,17
2017-06-10T02:40:59.940Z,17
2017-06-10T02:41:59.975Z,17.06
2017-06-10T02:43:00.010Z,17
2017-06-10T02:44:00.052Z,16.95
2017-06-10T02:45:00.089Z,16.96
2017-06-10T02:46:00.439Z,16.88
2017-06-10T02:47:00.169Z,16.88
2017-06-10T02:48:00.208Z,16.9
2017-06-10T02:49:00.246Z,16.93
2017-06-10T02:50:00.280Z,16.95
2017-06-10T02:51:00.327Z,16.9
2017-06-10T02:52:00.364Z,16.9
2017-06-10T02:53:00.715Z,16.9
2017-06-10T02:54:00.440Z,16.77
2017-06-10T02:55:00.474Z,16.81
2017-06-10T02:56:00.512Z,16.85
2017-06-10T02:57:00.861Z,16.88
2017-06-10T02:58:00.598Z,16.85
2017-06-10T02:59:00.634Z,16.81
2017-06-10T03:00:00.672Z,16.78
2017-06-10T03:01:00.712Z,16.81
2017-06-10T03:02:00.750Z,16.8
2017-06-10T03:03:00.790Z,16.8
2017-06-10T03:04:00.825Z,16.67
2017-06-10T03:05:00.872Z,16.7
2017-06-10T03:06:00.927Z,16.71
2017-06-10T03:07:00.941Z,16.73
2017-06-10T03:08:00.982Z,16.7
2017-06-10T03:09:01.019Z,16.68
2017-06-10T03:10:01.060Z,16.62
2017-06-10T03:11:01.098Z,16.67
2017-06-10T03:12:01.133Z,16.67
2017-06-10T03:13:01.178Z,16.6
2017-06-10T03:14:01.515Z,16.62
2017-06-10T03:15:01.557Z,16.58
2017-06-10T03:16:01.595Z,16.67
2017-06-10T03:17:01.337Z,16.53
2017-06-10T03:18:01.678Z,16.59
2017-06-10T03:19:01.724Z,16.58
2017-06-10T03:20:01.457Z,16.52
2017-06-10T03:21:02.108Z,16.53
2017-06-10T03:22:01.834Z,16.52
2017-06-10T03:23:01.567Z,16.49
2017-06-10T03:24:01.600Z,16.53
2017-06-10T03:25:01.947Z,16.48
2017-06-10T03:26:01.683Z,16.55
2017-06-10T03:27:01.717Z,16.52
2017-06-10T03:28:01.757Z,16.58
2017-06-10T03:29:01.797Z,16.56
2017-06-10T03:30:01.839Z,16.4
2017-06-10T03:31:01.868Z,16.5
2017-06-10T03:32:01.904Z,16.44
2017-06-10T03:33:01.949Z,16.49
2017-06-10T03:34:01.983Z,16.45
2017-06-10T03:35:02.021Z,16.52
2017-06-10T03:36:02.060Z,16.45
2017-06-10T03:37:02.416Z,16.49
2017-06-10T03:38:02.144Z,16.45
2017-06-10T03:39:02.489Z,16.49
2017-06-10T03:40:02.224Z,16.49
2017-06-10T03:41:02.253Z,16.53
2017-06-10T03:42:02.606Z,16.58
2017-06-10T03:43:02.650Z,16.62
2017-06-10T03:44:02.381Z,16.74
2017-06-10T03:45:02.417Z,16.85
2017-06-10T03:46:02.452Z,16.9
2017-06-10T03:47:02.496Z,17.06
2017-06-10T03:48:02.527Z,17.08
2017-06-10T03:49:02.570Z,17.17
2017-06-10T03:50:02.611Z,17.38
2017-06-10T03:51:02.955Z,17.4
2017-06-10T03:52:02.693Z,17.47
2017-06-10T03:53:02.728Z,17.66
2017-06-10T03:54:02.766Z,17.71
2017-06-10T03:55:03.124Z,17.87
2017-06-10T03:56:02.843Z,17.97
2017-06-10T03:57:02.890Z,18
2017-06-10T03:58:02.927Z,18.17
2017-06-10T03:59:02.962Z,18.22
2017-06-10T04:00:03.126Z,18.4
2017-06-10T04:01:03.047Z,18.49
2017-06-10T04:02:03.088Z,18.59
2017-06-10T04:03:03.435Z,18.77
2017-06-10T04:04:03.170Z,18.82
2017-06-10T04:05:03.216Z,18.94
2017-06-10T04:06:03.271Z,18.99
2017-06-10T04:07:03.292Z,19.05
2017-06-10T04:08:03.337Z,19.11
2017-06-10T04:09:03.685Z,19.18
2017-06-10T04:10:03.429Z,19.28
2017-06-10T04:11:03.470Z,19.35
2017-06-10T04:12:03.811Z,19.47
2017-06-10T04:13:03.548Z,19.58
2017-06-10T04:14:03.612Z,19.66
2017-06-10T04:15:03.628Z,19.72
2017-06-10T04:16:03.669Z,19.72
2017-06-10T04:17:03.715Z,19.7
2017-06-10T04:18:03.759Z,19.63
2017-06-10T04:19:03.797Z,19.6
2017-06-10T04:20:03.843Z,19.58
2017-06-10T04:21:04.191Z,19.46
2017-06-10T04:22:04.236Z,19.39
2017-06-10T04:23:04.271Z,19.4
2017-06-10T04:24:04.319Z,19.47
2017-06-10T04:25:04.050Z,19.35
2017-06-10T04:26:04.119Z,19.24
2017-06-10T04:27:04.138Z,19.28
2017-06-10T04:28:04.487Z,19.24
2017-06-10T04:29:04.222Z,19.18
2017-06-10T04:30:04.255Z,19.05
2017-06-10T04:31:04.613Z,19.01
2017-06-10T04:32:04.340Z,18.9
2017-06-10T04:33:04.384Z,18.86
2017-06-10T04:34:04.428Z,18.87
2017-06-10T04:35:04.772Z,18.8
2017-06-10T04:36:04.731Z,18.72
2017-06-10T04:37:04.541Z,18.83
2017-06-10T04:38:04.589Z,18.92
2017-06-10T04:39:04.943Z,19.06
2017-06-10T04:40:04.671Z,19.08
2017-06-10T04:41:04.711Z,19.18
2017-06-10T04:42:04.752Z,19.18
2017-06-10T04:43:04.798Z,19.33
2017-06-10T04:44:04.829Z,19.42
2017-06-10T04:45:04.876Z,19.66
2017-06-10T04:46:04.917Z,19.79
2017-06-10T04:47:04.960Z,19.88
2017-06-10T04:48:05.003Z,19.93
2017-06-10T04:49:05.047Z,20.05
2017-06-10T04:50:05.084Z,20.09
2017-06-10T04:51:05.124Z,20.05
2017-06-10T04:52:05.467Z,20.03
2017-06-10T04:53:05.510Z,20.05
2017-06-10T04:54:05.253Z,19.91
2017-06-10T04:55:05.291Z,19.91
2017-06-10T04:56:05.336Z,19.84
2017-06-10T04:57:05.383Z,19.86
2017-06-10T04:58:05.448Z,19.79
2017-06-10T04:59:05.453Z,19.75
2017-06-10T05:00:05.503Z,19.65
2017-06-10T05:01:05.542Z,19.63
2017-06-10T05:02:05.895Z,19.63
2017-06-10T05:03:05.640Z,19.66
2017-06-10T05:04:05.974Z,19.69
2017-06-10T05:05:05.711Z,19.78
2017-06-10T05:06:05.750Z,19.9
2017-06-10T05:07:05.786Z,20.03
2017-06-10T05:08:05.830Z,20.15
2017-06-10T05:09:05.868Z,20.3
2017-06-10T05:10:05.914Z,20.39
2017-06-10T05:11:05.949Z,20.28
2017-06-10T05:12:05.993Z,20.35
2017-06-10T05:13:06.037Z,20.42
2017-06-10T05:14:06.084Z,20.34
2017-06-10T05:15:06.117Z,20.35
2017-06-10T05:16:06.195Z,20.47
2017-06-10T05:17:06.201Z,20.38
2017-06-10T05:18:06.249Z,20.34
2017-06-10T05:19:06.291Z,20.27
2017-06-10T05:20:06.338Z,20.31
2017-06-10T05:21:06.376Z,20.28
2017-06-10T05:22:06.415Z,20.2
2017-06-10T05:23:06.480Z,20.2
2017-06-10T05:24:06.499Z,20.16
2017-06-10T05:25:06.851Z,20.15
2017-06-10T05:26:06.575Z,20.03
2017-06-10T05:27:06.928Z,20.05
2017-06-10T05:28:06.659Z,20.06
2017-06-10T05:29:07.235Z,20.05
2017-06-10T05:30:07.055Z,20.02
2017-06-10T05:31:06.787Z,20.06
2017-06-10T05:32:06.824Z,20.02
2017-06-10T05:33:07.182Z,20.03
2017-06-10T05:34:06.912Z,20
2017-06-10T05:35:06.951Z,20.02
2017-06-10T05:36:06.991Z,20
2017-06-10T05:37:07.036Z,20.05
2017-06-10T05:38:07.077Z,20.12
2017-06-10T05:39:07.133Z,20.27
2017-06-10T05:40:07.156Z,20.54
2017-06-10T05:41:07.519Z,20.83
2017-06-10T05:42:07.248Z,21.13
2017-06-10T05:43:07.291Z,21.46
2017-06-10T05:44:07.636Z,21.94
2017-06-10T05:45:07.707Z,22.27
2017-06-10T05:46:07.457Z,22.64
2017-06-10T05:47:07.462Z,22.97
2017-06-10T05:48:07.506Z,23.34
2017-06-10T05:49:07.556Z,23.68
2017-06-10T05:50:07.602Z,24.02
2017-06-10T05:51:07.651Z,24.29
2017-06-10T05:52:08.009Z,24.57
2017-06-10T05:53:07.747Z,24.88
2017-06-10T05:54:07.796Z,25.13
2017-06-10T05:55:07.837Z,25.39
2017-06-10T05:56:07.884Z,25.57
2017-06-10T05:57:07.943Z,25.84
2017-06-10T05:58:08.002Z,25.94
2017-06-10T05:59:08.041Z,26.09
2017-06-10T06:00:08.086Z,26.24
2017-06-10T06:01:08.139Z,26.42
2017-06-10T06:02:08.197Z,26.59
2017-06-10T06:03:08.234Z,26.69
2017-06-10T06:04:08.287Z,26.84
2017-06-10T06:05:08.336Z,27.05
2017-06-10T06:06:08.391Z,27.2
2017-06-10T06:07:08.444Z,27.33
2017-06-10T06:08:08.587Z,27.48
2017-06-10T06:09:08.863Z,27.57
2017-06-10T06:10:08.597Z,27.64
2017-06-10T06:11:08.648Z,27.84
2017-06-10T06:12:08.695Z,27.84
2017-06-10T06:13:08.747Z,27.89
2017-06-10T06:14:08.806Z,28.03
2017-06-10T06:15:08.853Z,28.17
2017-06-10T06:16:09.213Z,28.29
2017-06-10T06:17:08.964Z,28.4
2017-06-10T06:18:09.011Z,28.63
2017-06-10T06:19:09.066Z,28.7
2017-06-10T06:20:09.426Z,28.9
2017-06-10T06:21:09.169Z,29.04
2017-06-10T06:22:09.232Z,29.16
2017-06-10T06:23:09.283Z,29.18
2017-06-10T06:24:09.335Z,29.23
2017-06-10T06:25:09.396Z,29.4
2017-06-10T06:26:09.755Z,29.59
2017-06-10T06:27:09.803Z,29.7
2017-06-10T06:28:09.545Z,29.75
2017-06-10T06:29:09.599Z,29.93
2017-06-10T06:30:09.669Z,29.97
2017-06-10T06:31:10.023Z,30.08
2017-06-10T06:32:09.767Z,30.26
2017-06-10T06:33:09.821Z,30.37
2017-06-10T06:34:09.876Z,30.46
2017-06-10T06:35:09.929Z,30.62
2017-06-10T06:36:09.982Z,30.76
2017-06-10T06:37:10.042Z,30.94
2017-06-10T06:38:10.091Z,31.01
2017-06-10T06:39:10.151Z,31.12
2017-06-10T06:40:10.200Z,31.17
2017-06-10T06:41:10.255Z,31.12
2017-06-10T06:42:10.321Z,31.08
2017-06-10T06:43:10.370Z,30.99
2017-06-10T06:44:10.420Z,30.9
2017-06-10T06:45:10.473Z,30.98
2017-06-10T06:46:10.535Z,31.02
2017-06-10T06:47:10.588Z,31.18
2017-06-10T06:48:10.646Z,31.26
2017-06-10T06:49:10.702Z,31.38
2017-06-10T06:50:10.754Z,31.5
2017-06-10T06:51:10.812Z,31.75
2017-06-10T06:52:11.172Z,31.8
2017-06-10T06:53:10.924Z,31.96
2017-06-10T06:54:10.974Z,32
2017-06-10T06:55:11.352Z,32.15
2017-06-10T06:56:11.105Z,32.42
2017-06-10T06:57:11.140Z,32.51
2017-06-10T06:58:11.200Z,32.51
2017-06-10T06:59:11.561Z,32.61
2017-06-10T07:00:11.629Z,32.64
2017-06-10T07:01:11.376Z,32.52
2017-06-10T07:02:11.429Z,32.54
2017-06-10T07:03:11.484Z,32.48
2017-06-10T07:04:11.548Z,32.55
2017-06-10T07:05:11.597Z,32.54
2017-06-10T07:06:11.648Z,32.57
2017-06-10T07:07:11.704Z,32.7
2017-06-10T07:08:11.767Z,32.77
2017-06-10T07:09:11.826Z,32.89
2017-06-10T07:10:11.892Z,33.11
2017-06-10T07:11:11.936Z,33.03
2017-06-10T07:12:11.987Z,33.14
2017-06-10T07:13:12.045Z,33.27
2017-06-10T07:14:12.108Z,33.31
2017-06-10T07:15:12.165Z,33.31
2017-06-10T07:16:12.523Z,33.29
2017-06-10T07:17:12.279Z,33.41
2017-06-10T07:18:12.647Z,33.52
2017-06-10T07:19:12.395Z,33.57
2017-06-10T07:20:12.445Z,33.82
2017-06-10T07:21:12.502Z,33.78
2017-06-10T07:22:12.564Z,33.85
2017-06-10T07:23:12.618Z,33.9
2017-06-10T07:24:12.700Z,34
2017-06-10T07:25:12.740Z,34.02
2017-06-10T07:26:13.106Z,34.14
2017-06-10T07:27:12.854Z,34.16
2017-06-10T07:28:12.904Z,34.17
2017-06-10T07:29:12.969Z,34.26
2017-06-10T07:30:13.335Z,34.22
2017-06-10T07:31:13.077Z,34.32
2017-06-10T07:32:13.452Z,34.31
2017-06-10T07:33:13.200Z,34.48
2017-06-10T07:34:13.259Z,34.58
2017-06-10T07:35:13.311Z,34.54
2017-06-10T07:36:13.682Z,34.72
2017-06-10T07:37:13.435Z,34.66
2017-06-10T07:38:13.487Z,34.74
2017-06-10T07:39:13.546Z,34.77
2017-06-10T07:40:13.906Z,34.5
2017-06-10T07:41:13.660Z,34.36
2017-06-10T07:42:13.714Z,34.26
2017-06-10T07:43:13.778Z,34.27
2017-06-10T07:44:13.825Z,34.26
2017-06-10T07:45:13.890Z,34.38
2017-06-10T07:46:13.943Z,34.53
2017-06-10T07:47:14.313Z,34.6
2017-06-10T07:48:14.058Z,34.74
2017-06-10T07:49:14.121Z,34.96
2017-06-10T07:50:14.177Z,35.06
2017-06-10T07:51:14.229Z,35.08
2017-06-10T07:52:14.295Z,35.03
2017-06-10T07:53:14.351Z,34.89
2017-06-10T07:54:14.714Z,34.84
2017-06-10T07:55:14.457Z,34.77
2017-06-10T07:56:14.832Z,34.57
2017-06-10T07:57:14.882Z,34.27
2017-06-10T07:58:14.630Z,33.95
2017-06-10T07:59:14.691Z,33.8
2017-06-10T08:00:14.741Z,33.45
2017-06-10T08:01:15.130Z,33.17
2017-06-10T08:02:14.850Z,32.85
2017-06-10T08:03:14.902Z,32.74
2017-06-10T08:04:14.955Z,32.74
2017-06-10T08:05:15.016Z,32.93
2017-06-10T08:06:15.379Z,32.98
2017-06-10T08:07:15.124Z,33.26
2017-06-10T08:08:15.178Z,33.29
2017-06-10T08:09:15.238Z,33.64
2017-06-10T08:10:15.603Z,33.85
2017-06-10T08:11:15.350Z,34.02
2017-06-10T08:12:15.405Z,34.38
2017-06-10T08:13:15.471Z,34.53
2017-06-10T08:14:15.514Z,34.77
2017-06-10T08:15:15.570Z,34.89
2017-06-10T08:16:15.937Z,35.01
2017-06-10T08:17:15.683Z,35.08
2017-06-10T08:18:15.744Z,35.08
2017-06-10T08:19:15.951Z,35.13
2017-06-10T08:20:16.163Z,35.02
2017-06-10T08:21:15.912Z,34.81
2017-06-10T08:22:15.999Z,34.7
2017-06-10T08:23:16.024Z,34.44
2017-06-10T08:24:16.088Z,34.5
2017-06-10T08:25:16.142Z,34.54
2017-06-10T08:26:16.193Z,34.48
2017-06-10T08:27:16.257Z,34.64
2017-06-10T08:28:16.618Z,34.72
2017-06-10T08:29:16.673Z,34.83
2017-06-10T08:30:16.421Z,34.79
2017-06-10T08:31:16.477Z,34.79
2017-06-10T08:32:16.536Z,34.64
2017-06-10T08:33:16.611Z,34.5
2017-06-10T08:34:16.650Z,34.26
2017-06-10T08:35:16.703Z,34.13
2017-06-10T08:36:16.764Z,34.05
2017-06-10T08:37:17.122Z,34.09
2017-06-10T08:38:16.877Z,34.26
2017-06-10T08:39:16.930Z,34.44
2017-06-10T08:40:16.985Z,34.56
2017-06-10T08:41:17.348Z,34.72
2017-06-10T08:42:17.406Z,34.94
2017-06-10T08:43:17.154Z,34.98
2017-06-10T08:44:17.210Z,34.91
2017-06-10T08:45:17.586Z,34.7
2017-06-10T08:46:17.319Z,34.51
2017-06-10T08:47:17.375Z,34.17
2017-06-10T08:48:17.423Z,33.86
2017-06-10T08:49:17.482Z,33.57
2017-06-10T08:50:17.542Z,33.29
2017-06-10T08:51:17.592Z,32.98
2017-06-10T08:52:17.646Z,32.8
2017-06-10T08:53:17.697Z,32.66
2017-06-10T08:54:17.748Z,32.64
2017-06-10T08:55:17.806Z,32.54
2017-06-10T08:56:17.857Z,32.69
2017-06-10T08:57:18.219Z,32.64
2017-06-10T08:58:18.271Z,32.81
2017-06-10T08:59:18.326Z,32.95
2017-06-10T09:00:18.077Z,33.06
2017-06-10T09:01:18.131Z,33.03
2017-06-10T09:02:18.189Z,32.89
2017-06-10T09:03:18.547Z,32.69
2017-06-10T09:04:18.289Z,32.55
2017-06-10T09:05:18.338Z,32.29
2017-06-10T09:06:18.394Z,31.98
2017-06-10T09:07:18.807Z,31.65
2017-06-10T09:08:18.496Z,31.36
2017-06-10T09:09:18.871Z,31.15
2017-06-10T09:10:18.614Z,30.87
2017-06-10T09:11:18.651Z,30.46
2017-06-10T09:12:18.697Z,30.33
2017-06-10T09:13:18.748Z,30.03
2017-06-10T09:14:18.798Z,29.93
2017-06-10T09:15:18.883Z,29.86
2017-06-10T09:16:18.906Z,29.75
2017-06-10T09:17:18.959Z,29.57
2017-06-10T09:18:19.002Z,29.35
2017-06-10T09:19:19.044Z,29.31
2017-06-10T09:20:19.406Z,29.16
2017-06-10T09:21:19.144Z,29.07
2017-06-10T09:22:19.200Z,28.91
2017-06-10T09:23:19.245Z,28.73
2017-06-10T09:24:19.290Z,28.63
2017-06-10T09:25:19.341Z,28.56
2017-06-10T09:26:19.390Z,28.41
2017-06-10T09:27:19.435Z,28.32
2017-06-10T09:28:19.484Z,28.32
2017-06-10T09:29:19.540Z,28.1
2017-06-10T09:30:19.581Z,28.07
2017-06-10T09:31:19.626Z,28.06
2017-06-10T09:32:19.670Z,28.29
2017-06-10T09:33:19.721Z,28.47
2017-06-10T09:34:19.777Z,28.7
2017-06-10T09:35:20.134Z,28.91
2017-06-10T09:36:19.875Z,29.18
2017-06-10T09:37:19.922Z,29.16
2017-06-10T09:38:20.290Z,29.18
2017-06-10T09:39:20.014Z,29.2
2017-06-10T09:40:20.069Z,29.13
2017-06-10T09:41:20.112Z,29.03
2017-06-10T09:42:20.163Z,29.06
2017-06-10T09:43:20.517Z,29.04
2017-06-10T09:44:20.264Z,29.01
2017-06-10T09:45:20.314Z,29.15
2017-06-10T09:46:20.668Z,29.23
2017-06-10T09:47:20.414Z,29.47
2017-06-10T09:48:20.461Z,29.81
2017-06-10T09:49:20.511Z,30.02
2017-06-10T09:50:20.571Z,30.36
2017-06-10T09:51:20.921Z,30.65
2017-06-10T09:52:20.666Z,30.89
2017-06-10T09:53:20.725Z,31.08
2017-06-10T09:54:21.087Z,31.31
2017-06-10T09:55:20.839Z,31.38
2017-06-10T09:56:20.887Z,31.55
2017-06-10T09:57:21.247Z,31.61
2017-06-10T09:58:21.040Z,31.72
2017-06-10T09:59:21.046Z,31.98
2017-06-10T10:00:21.115Z,31.93
2017-06-10T10:01:21.164Z,32
2017-06-10T10:02:21.214Z,32
2017-06-10T10:03:21.282Z,31.96
2017-06-10T10:04:21.329Z,31.88
2017-06-10T10:05:21.384Z,31.8
2017-06-10T10:06:21.751Z,31.8
2017-06-10T10:07:21.494Z,31.73
2017-06-10T10:08:21.707Z,31.65
2017-06-10T10:09:22.228Z,31.62
2017-06-10T10:10:21.660Z,31.4
2017-06-10T10:11:21.719Z,31.36
2017-06-10T10:12:21.767Z,31.18
2017-06-10T10:13:21.818Z,31.18
2017-06-10T10:14:21.877Z,31.06
2017-06-10T10:15:21.932Z,31.01
2017-06-10T10:16:21.982Z,30.81
2017-06-10T10:17:22.037Z,30.72
2017-06-10T10:18:22.089Z,30.59
2017-06-10T10:19:22.142Z,30.47
2017-06-10T10:20:22.194Z,30.31
2017-06-10T10:21:22.244Z,30.16
2017-06-10T10:22:22.606Z,29.94
2017-06-10T10:23:22.361Z,29.68
2017-06-10T10:24:22.401Z,29.66
2017-06-10T10:25:22.451Z,29.4
2017-06-10T10:26:22.501Z,29.31
2017-06-10T10:27:22.552Z,29.19
2017-06-10T10:28:22.609Z,29.03
2017-06-10T10:29:22.651Z,28.88
2017-06-10T10:30:22.698Z,28.75
2017-06-10T10:31:23.053Z,28.63
2017-06-10T10:32:23.101Z,28.53
2017-06-10T10:33:22.848Z,28.44
2017-06-10T10:34:22.892Z,28.35
2017-06-10T10:35:22.940Z,28.28
2017-06-10T10:36:22.994Z,28.26
2017-06-10T10:37:23.053Z,28.29
2017-06-10T10:38:23.095Z,28.23
2017-06-10T10:39:23.142Z,28.28
2017-06-10T10:40:23.185Z,28.31
2017-06-10T10:41:23.242Z,28.25
2017-06-10T10:42:23.593Z,28.25
2017-06-10T10:43:23.663Z,28.31
2017-06-10T10:44:23.387Z,28.28
2017-06-10T10:45:23.742Z,28.25
2017-06-10T10:46:23.495Z,28.16
2017-06-10T10:47:23.842Z,28.14
2017-06-10T10:48:23.581Z,28.19
2017-06-10T10:49:23.634Z,28.07
2017-06-10T10:50:23.982Z,28.06
2017-06-10T10:51:24.037Z,28.06
2017-06-10T10:52:23.777Z,27.98
2017-06-10T10:53:24.133Z,27.96
2017-06-10T10:54:23.878Z,27.98
2017-06-10T10:55:23.929Z,27.91
2017-06-10T10:56:24.279Z,27.88
2017-06-10T10:57:24.020Z,27.85
2017-06-10T10:58:24.067Z,27.84
2017-06-10T10:59:24.538Z,27.8
2017-06-10T11:00:24.168Z,27.94
2017-06-10T11:01:24.229Z,27.94
2017-06-10T11:02:24.254Z,27.92
2017-06-10T11:03:24.618Z,27.88
2017-06-10T11:04:24.393Z,27.96
2017-06-10T11:05:24.719Z,27.95
2017-06-10T11:06:24.453Z,27.92
2017-06-10T11:07:24.507Z,28.03
2017-06-10T11:08:24.565Z,27.99
2017-06-10T11:09:24.919Z,27.98
2017-06-10T11:10:24.653Z,27.94
2017-06-10T11:11:24.698Z,27.99
2017-06-10T11:12:25.055Z,27.98
2017-06-10T11:13:24.789Z,27.88
2017-06-10T11:14:24.845Z,27.92
2017-06-10T11:15:24.929Z,27.88
2017-06-10T11:16:24.934Z,27.88
2017-06-10T11:17:24.986Z,27.77
2017-06-10T11:18:25.039Z,27.77
2017-06-10T11:19:25.076Z,27.77
2017-06-10T11:20:25.129Z,27.77
2017-06-10T11:21:25.177Z,27.74
2017-06-10T11:22:25.539Z,27.64
2017-06-10T11:23:25.577Z,27.57
2017-06-10T11:24:25.324Z,27.58
2017-06-10T11:25:25.372Z,27.59
2017-06-10T11:26:25.427Z,27.64
2017-06-10T11:27:25.461Z,27.7
2017-06-10T11:28:25.514Z,27.73
2017-06-10T11:29:25.555Z,27.66
2017-06-10T11:30:25.609Z,27.62
2017-06-10T11:31:25.658Z,27.62
2017-06-10T11:32:25.696Z,27.61
2017-06-10T11:33:25.749Z,27.61
2017-06-10T11:34:25.803Z,27.62
2017-06-10T11:35:26.297Z,27.59
2017-06-10T11:36:25.895Z,27.66
2017-06-10T11:37:26.241Z,27.64
2017-06-10T11:38:25.987Z,27.67
2017-06-10T11:39:26.096Z,27.62
2017-06-10T11:40:26.079Z,27.73
2017-06-10T11:41:26.434Z,27.76
2017-06-10T11:42:26.172Z,27.77
2017-06-10T11:43:26.223Z,27.8
2017-06-10T11:44:26.264Z,27.85
2017-06-10T11:45:26.316Z,27.92
2017-06-10T11:46:26.362Z,27.96
2017-06-10T11:47:26.459Z,27.88
2017-06-10T11:48:26.454Z,27.91
2017-06-10T11:49:26.500Z,27.74
2017-06-10T11:50:26.588Z,27.85
2017-06-10T11:51:26.905Z,27.79
2017-06-10T11:52:26.647Z,27.74
2017-06-10T11:53:26.693Z,27.77
2017-06-10T11:54:26.735Z,27.76
2017-06-10T11:55:26.784Z,27.8
2017-06-10T11:56:26.828Z,27.76
2017-06-10T11:57:27.500Z,27.66
2017-06-10T11:58:26.923Z,27.67
2017-06-10T11:59:26.975Z,27.54
2017-06-10T12:00:27.034Z,27.5
2017-06-10T12:01:27.065Z,27.42
2017-06-10T12:02:27.110Z,27.39
2017-06-10T12:03:27.160Z,27.47
2017-06-10T12:04:27.208Z,27.39
2017-06-10T12:05:27.252Z,27.41
2017-06-10T12:06:27.624Z,27.41
2017-06-10T12:07:27.347Z,27.47
2017-06-10T12:08:27.698Z,27.38
2017-06-10T12:09:27.446Z,27.31
2017-06-10T12:10:27.492Z,27.41
2017-06-10T12:11:27.534Z,27.32
2017-06-10T12:12:27.893Z,27.26
2017-06-10T12:13:28.265Z,27.28
2017-06-10T12:14:27.670Z,27.32
2017-06-10T12:15:27.717Z,27.19
2017-06-10T12:16:27.766Z,27.24
2017-06-10T12:17:28.119Z,27.24
2017-06-10T12:18:27.864Z,27.24
2017-06-10T12:19:27.897Z,27.11
2017-06-10T12:20:27.954Z,27.05
2017-06-10T12:21:27.997Z,27.1
2017-06-10T12:22:28.039Z,26.95
2017-06-10T12:23:28.707Z,27.01
2017-06-10T12:24:28.130Z,26.86
2017-06-10T12:25:28.483Z,26.83
2017-06-10T12:26:28.228Z,26.86
2017-06-10T12:27:28.271Z,26.72
2017-06-10T12:28:28.310Z,26.76
2017-06-10T12:29:28.359Z,26.69
2017-06-10T12:30:28.417Z,26.72
2017-06-10T12:31:28.486Z,26.68
2017-06-10T12:32:28.497Z,26.72
2017-06-10T12:33:28.542Z,26.69
2017-06-10T12:34:28.721Z,26.77
2017-06-10T12:35:28.636Z,26.77
2017-06-10T12:36:28.684Z,26.68
2017-06-10T12:37:28.730Z,26.83
2017-06-10T12:38:28.769Z,26.81
2017-06-10T12:39:28.823Z,26.76
2017-06-10T12:40:28.864Z,26.67
2017-06-10T12:41:28.906Z,26.72
2017-06-10T12:42:28.955Z,26.77
2017-06-10T12:43:28.995Z,26.77
2017-06-10T12:44:29.048Z,26.69
2017-06-10T12:45:29.091Z,26.68
2017-06-10T12:46:29.144Z,26.69
2017-06-10T12:47:29.181Z,26.72
2017-06-10T12:48:29.243Z,26.58
2017-06-10T12:49:29.271Z,26.64
2017-06-10T12:50:29.320Z,26.57
2017-06-10T12:51:29.357Z,26.52
2017-06-10T12:52:29.717Z,26.46
2017-06-10T12:53:29.447Z,26.52
2017-06-10T12:54:29.502Z,26.5
2017-06-10T12:55:29.539Z,26.46
2017-06-10T12:56:29.592Z,26.4
2017-06-10T12:57:30.569Z,26.4